Marola — IBFL — position and weather

sailwx.info

Track history (hours):
 
Tides and Currents Weather Stations Pressure Air Temp Water Temp Dewpoint Dewpoint Depression Visibility Wind Speed Wind Dir Waves Ship Positions

Marola

Last reported at 2017-Jan-18 23:33 UTC. Time now 2017-Jan-19 00:19 UTC.
Position N 54°27' E 011°45'.

Length 180 m; draft 8 m.

Type: Ship (hazmat cat B). MMSI: 247094900.

Date/timePositionNaut miles runAvg speedWind from/ knotsBaromVisibWave heightAir tempDewpointWater temp
2017-Jan-18 23:33N 54°27' E 011°45'7 6.9
2017-Jan-18 22:33N 54°22' E 011°53'9 7.2
2017-Jan-18 21:20N 54°15' E 012°03'5 6.9
2017-Jan-18 20:33N 54°10' E 012°06'2 0.5
2017-Jan-18 17:22N 54°10' E 012°08'0 0.0
2017-Jan-18 15:13N 54°10' E 012°08'0 0.0
2017-Jan-18 12:25N 54°10' E 012°08'0 0.0
2017-Jan-18 11:29N 54°10' E 012°08'0 0.0
2017-Jan-18 10:31N 54°10' E 012°08'0 0.0
2017-Jan-18 08:32N 54°10' E 012°08'0 0.0
2017-Jan-18 07:14N 54°10' E 012°08'0 0.0
2017-Jan-18 05:25N 54°10' E 012°08'0 0.0
2017-Jan-18 03:28N 54°10' E 012°08'0 0.0
2017-Jan-18 01:23N 54°10' E 012°08'0 0.0
2017-Jan-17 23:28N 54°10' E 012°08'0 0.0
2017-Jan-17 18:13N 54°10' E 012°08'0 0.0
2017-Jan-17 17:32N 54°10' E 012°08'0 0.0
2017-Jan-17 13:31N 54°10' E 012°08'1 0.5
2017-Jan-17 12:32N 54°10' E 012°08'4 4.5
2017-Jan-17 11:32N 54°14' E 012°04'1210.7
2017-Jan-17 10:26N 54°22' E 011°50'1214.0
2017-Jan-17 09:33N 54°29' E 011°33'1413.6
2017-Jan-17 08:33N 54°34' E 011°11'1413.7
2017-Jan-17 07:33N 54°34' E 010°48'52 6.4
2017-Jan-16 23:30N 54°11' E 009°29'6 6.4
2017-Jan-16 22:31N 54°08' E 009°20'6 6.7
2017-Jan-16 21:34N 54°01' E 009°18'7 6.5
2017-Jan-16 20:33N 53°56' E 009°12'3 2.9
2017-Jan-16 19:33N 53°54' E 009°09'2 2.2
2017-Jan-16 18:33N 53°53' E 009°05'10 9.6
2017-Jan-16 17:33N 53°50' E 008°50'1010.0
2017-Jan-16 16:34N 53°57' E 008°37'1212.0
2017-Jan-16 15:33N 53°59' E 008°17'1212.2
2017-Jan-16 14:32N 54°02' E 007°56'19012.7
2017-Jan-15 23:32N 52°41' E 003°08'1212.5
2017-Jan-15 22:34N 52°30' E 002°59'5613.2
2017-Jan-15 18:18N 51°38' E 002°26'1115.0
2017-Jan-15 17:33N 51°30' E 002°15'1514.9
2017-Jan-15 16:33N 51°16' E 002°06'1616.0
2017-Jan-15 15:33N 51°07' E 001°45'1717.2
2017-Jan-15 14:33N 50°54' E 001°26'4915.4
2017-Jan-15 11:21N 50°24' E 000°25'1417.1
2017-Jan-15 10:33N 50°20' E 000°04'1515.0
2017-Jan-15 09:33N 50°16' W 000°18'1615.1
2017-Jan-15 08:31N 50°12' W 000°42'1616.4
2017-Jan-15 07:33N 50°07' W 001°05'1514.5
2017-Jan-15 06:33N 50°03' W 001°27'1312.6
2017-Jan-15 05:34N 50°00' W 001°46'1111.1
2017-Jan-15 04:33N 49°57' W 002°03'13012.9
2017-Jan-14 18:32N 49°01' W 005°03'1515.7
2017-Jan-14 17:34N 48°53' W 005°23'5711.4
2017-Jan-14 12:32N 47°56' W 005°16'1313.4
2017-Jan-14 11:33N 47°46' W 005°05'1312.6
2017-Jan-14 10:30N 47°36' W 004°50'2913.3
2017-Jan-14 08:20N 47°25' W 004°11'1013.4
2017-Jan-14 07:34N 47°20' W 003°57'1313.0
2017-Jan-14 06:34N 47°15' W 003°40'1312.9
2017-Jan-14 05:34N 47°10' W 003°22'1312.5
2017-Jan-14 04:34N 47°05' W 003°05'1312.8
2017-Jan-14 03:33N 47°00' W 002°48'33 1.0
2017-Jan-12 19:16N 47°18' W 002°07'0 0.0
2017-Jan-12 18:25N 47°18' W 002°07'0 0.0
2017-Jan-12 17:31N 47°18' W 002°07'0 0.0
2017-Jan-12 16:16N 47°18' W 002°07'0 0.0
2017-Jan-12 15:31N 47°18' W 002°07'9 6.3
2017-Jan-12 14:04N 47°12' W 002°17'5 8.9
2017-Jan-12 13:28N 47°08' W 002°21'7 7.2
2017-Jan-12 12:33N 47°03' W 002°29'8 8.1
2017-Jan-12 11:33N 46°60' W 002°39'1111.2
2017-Jan-12 10:33N 46°54' W 002°54'1514.6
2017-Jan-12 09:33N 46°47' W 003°12'5613.7
2017-Jan-12 05:26N 46°20' W 004°25'1513.7
2017-Jan-12 04:19N 46°11' W 004°41'8214.1
2017-Jan-11 22:31N 45°30' W 006°23'  
Track history (hours):
 
Tides and Currents Weather Stations Pressure Air Temp Water Temp Dewpoint Dewpoint Depression Visibility Wind Speed Wind Dir Waves Ship Positions

Marola

Last reported at 2017-Jan-18 23:33 UTC. Time now 2017-Jan-19 00:19 UTC.
Position N 54°27' E 011°45'.

Length 180 m; draft 8 m.

Type: Ship (hazmat cat B). MMSI: 247094900.

Date/timePositionNaut miles runAvg speedWind from/ knotsBaromVisibWave heightAir tempDewpointWater temp
2017-Jan-18 23:33N 54°27' E 011°45'7 6.9
2017-Jan-18 22:33N 54°22' E 011°53'9 7.2
2017-Jan-18 21:20N 54°15' E 012°03'5 6.9
2017-Jan-18 20:33N 54°10' E 012°06'2 0.5
2017-Jan-18 17:22N 54°10' E 012°08'0 0.0
2017-Jan-18 15:13N 54°10' E 012°08'0 0.0
2017-Jan-18 12:25N 54°10' E 012°08'0 0.0
2017-Jan-18 11:29N 54°10' E 012°08'0 0.0
2017-Jan-18 10:31N 54°10' E 012°08'0 0.0
2017-Jan-18 08:32N 54°10' E 012°08'0 0.0
2017-Jan-18 07:14N 54°10' E 012°08'0 0.0
2017-Jan-18 05:25N 54°10' E 012°08'0 0.0
2017-Jan-18 03:28N 54°10' E 012°08'0 0.0
2017-Jan-18 01:23N 54°10' E 012°08'0 0.0
2017-Jan-17 23:28N 54°10' E 012°08'0 0.0
2017-Jan-17 18:13N 54°10' E 012°08'0 0.0
2017-Jan-17 17:32N 54°10' E 012°08'0 0.0
2017-Jan-17 13:31N 54°10' E 012°08'1 0.5
2017-Jan-17 12:32N 54°10' E 012°08'4 4.5
2017-Jan-17 11:32N 54°14' E 012°04'1210.7
2017-Jan-17 10:26N 54°22' E 011°50'1214.0
2017-Jan-17 09:33N 54°29' E 011°33'1413.6
2017-Jan-17 08:33N 54°34' E 011°11'1413.7
2017-Jan-17 07:33N 54°34' E 010°48'52 6.4
2017-Jan-16 23:30N 54°11' E 009°29'6 6.4
2017-Jan-16 22:31N 54°08' E 009°20'6 6.7
2017-Jan-16 21:34N 54°01' E 009°18'7 6.5
2017-Jan-16 20:33N 53°56' E 009°12'3 2.9
2017-Jan-16 19:33N 53°54' E 009°09'2 2.2
2017-Jan-16 18:33N 53°53' E 009°05'10 9.6
2017-Jan-16 17:33N 53°50' E 008°50'1010.0
2017-Jan-16 16:34N 53°57' E 008°37'1212.0
2017-Jan-16 15:33N 53°59' E 008°17'1212.2
2017-Jan-16 14:32N 54°02' E 007°56'19012.7
2017-Jan-15 23:32N 52°41' E 003°08'1212.5
2017-Jan-15 22:34N 52°30' E 002°59'5613.2
2017-Jan-15 18:18N 51°38' E 002°26'1115.0
2017-Jan-15 17:33N 51°30' E 002°15'1514.9
2017-Jan-15 16:33N 51°16' E 002°06'1616.0
2017-Jan-15 15:33N 51°07' E 001°45'1717.2
2017-Jan-15 14:33N 50°54' E 001°26'4915.4
2017-Jan-15 11:21N 50°24' E 000°25'1417.1
2017-Jan-15 10:33N 50°20' E 000°04'1515.0
2017-Jan-15 09:33N 50°16' W 000°18'1615.1
2017-Jan-15 08:31N 50°12' W 000°42'1616.4
2017-Jan-15 07:33N 50°07' W 001°05'1514.5
2017-Jan-15 06:33N 50°03' W 001°27'1312.6
2017-Jan-15 05:34N 50°00' W 001°46'1111.1
2017-Jan-15 04:33N 49°57' W 002°03'13012.9
2017-Jan-14 18:32N 49°01' W 005°03'1515.7
2017-Jan-14 17:34N 48°53' W 005°23'5711.4
2017-Jan-14 12:32N 47°56' W 005°16'1313.4
2017-Jan-14 11:33N 47°46' W 005°05'1312.6
2017-Jan-14 10:30N 47°36' W 004°50'2913.3
2017-Jan-14 08:20N 47°25' W 004°11'1013.4
2017-Jan-14 07:34N 47°20' W 003°57'1313.0
2017-Jan-14 06:34N 47°15' W 003°40'1312.9
2017-Jan-14 05:34N 47°10' W 003°22'1312.5
2017-Jan-14 04:34N 47°05' W 003°05'1312.8
2017-Jan-14 03:33N 47°00' W 002°48'33 1.0
2017-Jan-12 19:16N 47°18' W 002°07'0 0.0
2017-Jan-12 18:25N 47°18' W 002°07'0 0.0
2017-Jan-12 17:31N 47°18' W 002°07'0 0.0
2017-Jan-12 16:16N 47°18' W 002°07'0 0.0
2017-Jan-12 15:31N 47°18' W 002°07'9 6.3
2017-Jan-12 14:04N 47°12' W 002°17'5 8.9
2017-Jan-12 13:28N 47°08' W 002°21'7 7.2
2017-Jan-12 12:33N 47°03' W 002°29'8 8.1
2017-Jan-12 11:33N 46°60' W 002°39'1111.2
2017-Jan-12 10:33N 46°54' W 002°54'1514.6
2017-Jan-12 09:33N 46°47' W 003°12'5613.7
2017-Jan-12 05:26N 46°20' W 004°25'1513.7
2017-Jan-12 04:19N 46°11' W 004°41'8214.1
2017-Jan-11 22:31N 45°30' W 006°23'  

Dump ship's entire track history